Terminal Aerodrome Forecast
Issued by NWS Twin Cities, MN

Home | Current Version | Previous Version | Text Only | Print | Product List | Glossary Off
Versions: 1 2 3 4 5 6 7 8 9 10 11 12 13 14

813
FTUS43 KMPX 112328
TAFEAU
TAF
KEAU 112328Z 1200/1224 23004KT P6SM OVC060
     FM120400 26005KT P6SM SCT025 OVC040
     FM120700 28006KT P6SM OVC025
     FM121100 31011KT P6SM SCT030
     FM121500 32015G22KT P6SM SCT040=

USA.gov is the U.S. government's official web portal to all federal, state and local government web resources and services.